»·PEaware :: SWA4111 KLAS-KPHX

SWA4111 :: KLAS-KPHX

FLIGHT INFORMATION

Flight Status: Arrived
Operator:
Southwest Airlines
More flights by this operator :: More flights under this callsign
Pilot: Rohan O. (9904)
Aircraft: BOEING 737-300
(B733)
More flights by this aircraft type
Origin: KLAS McCarran Intl
United States
Destination: KPHX Phoenix Sky Harbor Intl
United States
More flights between these airports :: More routes between these airports
Route: +COWBY8 COWBY TENTS BRUSR1
File this flight plan on PilotEdge
Remarks: PBN / A1B3B4B5D3D4 DOF / 180415 REG / N155AW EET / KZAB0022 OPR / SWA PER / C RMK / TCAS SIMBRIEF
Altitude:
(Current/Filed)
31,000ft
Speed:
(Current/Filed)
440kts
Departed: 15-Apr-18 08:19 AM
Arrived: 15-Apr-18 09:11 AM
Distance/Time
Traveled:
222nm/0:52
Distance/Time
To Go:
Arrived

Flight Plot

Page will automatically refresh every two minutes.

Flight plan parsing failed; only flown route is shown


Map Options




Map Legend


Flown Route
Filed Route
Departure Airport
Arrival Airport
Navaid (VOR, NDB)
Fix

Horizontal Profiles

Position Reports

Time Latitude Longitude Heading Altitude Ground
Speed
15-Apr-18 07:15 36.080504 -115.136428 41 2148ft 0kts
15-Apr-18 07:16 36.080504 -115.136428 41 2148ft 0kts
15-Apr-18 07:17 36.080504 -115.136428 41 2148ft 0kts
15-Apr-18 07:18 36.080504 -115.136428 41 2148ft 0kts
15-Apr-18 07:19 36.080504 -115.136428 41 2148ft 0kts
15-Apr-18 07:20 36.080504 -115.136428 41 2148ft 0kts
15-Apr-18 07:21 36.080504 -115.136428 41 2148ft 0kts
15-Apr-18 07:22 36.080504 -115.136428 41 2148ft 0kts
15-Apr-18 07:23 36.080504 -115.136428 41 2148ft 0kts
15-Apr-18 07:24 36.080504 -115.136428 41 2148ft 0kts
15-Apr-18 07:25 36.080504 -115.136428 41 2148ft 0kts
15-Apr-18 07:26 36.080504 -115.136428 41 2148ft 0kts
15-Apr-18 07:27 36.080504 -115.136428 41 2148ft 0kts
15-Apr-18 07:28 36.080504 -115.136428 41 2148ft 0kts
15-Apr-18 07:29 36.080504 -115.136428 41 2148ft 0kts
15-Apr-18 07:30 36.080504 -115.136428 41 2148ft 0kts
15-Apr-18 07:31 36.080504 -115.136428 41 2148ft 0kts
15-Apr-18 07:32 36.080504 -115.136428 41 2148ft 0kts
15-Apr-18 07:33 36.080504 -115.136428 41 2148ft 0kts
15-Apr-18 07:34 36.080504 -115.136428 41 2148ft 0kts
15-Apr-18 07:35 36.080504 -115.136428 41 2148ft 0kts
15-Apr-18 07:36 36.080504 -115.136428 41 2148ft 0kts
15-Apr-18 07:37 36.080504 -115.136428 41 2148ft 0kts
15-Apr-18 07:38 36.080504 -115.136428 41 2148ft 0kts
15-Apr-18 07:39 36.080504 -115.136428 41 2148ft 0kts
15-Apr-18 07:40 36.080504 -115.136428 41 2148ft 0kts
15-Apr-18 07:41 36.080504 -115.136428 41 2148ft 0kts
15-Apr-18 07:42 36.080504 -115.136428 41 2148ft 0kts
15-Apr-18 07:43 36.080504 -115.136428 41 2148ft 0kts
15-Apr-18 07:44 36.080504 -115.136428 41 2148ft 0kts
15-Apr-18 07:45 36.080504 -115.136428 41 2148ft 0kts
15-Apr-18 07:46 36.080504 -115.136428 41 2148ft 0kts
15-Apr-18 07:47 36.080504 -115.136428 41 2148ft 0kts
15-Apr-18 07:48 36.080504 -115.136428 41 2148ft 0kts
15-Apr-18 07:49 36.080504 -115.136428 41 2148ft 0kts
15-Apr-18 07:50 36.080504 -115.136428 41 2148ft 0kts
15-Apr-18 07:51 36.080504 -115.136428 41 2148ft 0kts
15-Apr-18 07:52 36.080504 -115.136428 41 2148ft 0kts
15-Apr-18 07:53 36.080504 -115.136428 41 2148ft 0kts
15-Apr-18 07:54 36.080504 -115.136428 41 2148ft 0kts
15-Apr-18 07:55 36.080504 -115.136428 41 2148ft 0kts
15-Apr-18 07:56 36.080504 -115.136428 41 2148ft 0kts
15-Apr-18 07:57 36.080504 -115.136428 41 2148ft 0kts
15-Apr-18 07:58 36.080504 -115.136428 41 2148ft 0kts
15-Apr-18 07:59 36.080504 -115.136428 41 2148ft 0kts
15-Apr-18 08:00 36.080504 -115.136428 41 2148ft 0kts
15-Apr-18 08:01 36.080504 -115.136428 41 2148ft 0kts
15-Apr-18 08:02 36.080504 -115.136428 41 2148ft 0kts
15-Apr-18 08:03 36.080504 -115.136428 41 2148ft 0kts
15-Apr-18 08:04 36.080504 -115.136428 41 2148ft 0kts
15-Apr-18 08:05 36.080504 -115.136428 41 2148ft 0kts
15-Apr-18 08:06 36.080410 -115.136529 41 2148ft 0kts
15-Apr-18 08:07 36.079998 -115.136968 40 2148ft 0kts
15-Apr-18 08:08 36.079893 -115.137084 43 2148ft 0kts
15-Apr-18 08:09 36.079893 -115.137084 43 2148ft 0kts
15-Apr-18 08:10 36.079893 -115.137084 43 2148ft 0kts
15-Apr-18 08:11 36.079893 -115.137084 43 2148ft 0kts
15-Apr-18 08:12 36.079781 -115.136852 156 2148ft 4kts
15-Apr-18 08:13 36.078397 -115.135258 125 2148ft 9kts
15-Apr-18 08:14 36.078273 -115.131211 90 2148ft 14kts
15-Apr-18 08:15 36.078275 -115.125958 89 2148ft 17kts
15-Apr-18 08:16 36.078106 -115.122479 121 2148ft 8kts
15-Apr-18 08:17 36.076645 -115.121281 190 2148ft 3kts
15-Apr-18 08:18 36.076427 -115.130892 269 2148ft 123kts
15-Apr-18 08:19 36.074464 -115.187789 267 3503ft 220kts
15-Apr-18 08:20 36.058772 -115.256915 210 6191ft 249kts
15-Apr-18 08:21 35.990831 -115.289147 206 7037ft 270kts
15-Apr-18 08:22 35.918987 -115.282156 160 7665ft 285kts
15-Apr-18 08:23 35.859022 -115.236247 119 10308ft 311kts
15-Apr-18 08:24 35.833755 -115.125645 109 12538ft 353kts
15-Apr-18 08:25 35.827594 -115.003559 85 15002ft 381kts
15-Apr-18 08:26 35.839651 -114.874008 85 17340ft 398kts
15-Apr-18 08:27 35.851982 -114.738063 85 19466ft 416kts
15-Apr-18 08:28 35.864347 -114.599909 85 21376ft 432kts
15-Apr-18 08:29 35.877330 -114.452803 85 23171ft 448kts
15-Apr-18 08:30 35.889754 -114.310051 86 24575ft 463kts
15-Apr-18 08:31 35.903071 -114.154791 86 26043ft 474kts
15-Apr-18 08:32 35.916573 -113.994926 85 27370ft 486kts
15-Apr-18 08:33 35.907665 -113.834137 119 28614ft 480kts
15-Apr-18 08:34 35.865256 -113.702415 114 30006ft 483kts
15-Apr-18 08:35 35.820512 -113.549582 114 29619ft 482kts
15-Apr-18 08:36 35.776824 -113.400661 114 29151ft 481kts
15-Apr-18 08:37 35.735987 -113.261891 114 29147ft 482kts
15-Apr-18 08:38 35.691038 -113.110172 114 29208ft 482kts
15-Apr-18 08:39 35.645396 -112.957004 114 29253ft 483kts
15-Apr-18 08:40 35.599837 -112.804920 113 29257ft 484kts
15-Apr-18 08:41 35.554392 -112.654017 113 29253ft 485kts
15-Apr-18 08:42 35.510004 -112.507393 113 29249ft 485kts
15-Apr-18 08:43 35.425206 -112.412618 185 29252ft 429kts
15-Apr-18 08:44 35.311523 -112.415572 179 29250ft 432kts
15-Apr-18 08:45 35.195838 -112.393799 177 29248ft 434kts
15-Apr-18 08:46 35.086662 -112.370200 176 29246ft 434kts
15-Apr-18 08:47 34.981387 -112.347416 176 29238ft 436kts
15-Apr-18 08:48 34.879571 -112.325180 175 28300ft 437kts
15-Apr-18 08:49 34.764798 -112.299848 174 26577ft 435kts
15-Apr-18 08:50 34.651704 -112.275029 174 24370ft 410kts
15-Apr-18 08:51 34.544358 -112.251515 174 21994ft 394kts
15-Apr-18 08:52 34.444875 -112.229768 172 20057ft 375kts
15-Apr-18 08:53 34.346305 -112.204167 170 17552ft 368kts
15-Apr-18 08:54 34.250550 -112.179349 170 15348ft 356kts
15-Apr-18 08:55 34.157304 -112.155296 170 14867ft 353kts
15-Apr-18 08:56 34.067796 -112.138756 187 15146ft 304kts
15-Apr-18 08:57 33.990301 -112.147729 187 14986ft 301kts
15-Apr-18 08:58 33.908037 -112.157185 190 14709ft 307kts
15-Apr-18 08:59 33.832275 -112.173110 191 12646ft 313kts
15-Apr-18 09:00 33.748655 -112.190829 191 10340ft 320kts
15-Apr-18 09:01 33.663287 -112.208840 190 8236ft 315kts
15-Apr-18 09:02 33.585029 -112.225354 190 6459ft 287kts
15-Apr-18 09:03 33.511281 -112.241232 191 6004ft 276kts
15-Apr-18 09:04 33.446997 -112.237805 130 5752ft 232kts
15-Apr-18 09:05 33.397226 -112.197274 132 4522ft 224kts
15-Apr-18 09:06 33.414181 -112.137915 47 3438ft 201kts
15-Apr-18 09:07 33.433356 -112.093704 96 2509ft 147kts
15-Apr-18 09:08 33.430556 -112.054256 91 1637ft 122kts
15-Apr-18 09:09 33.428907 -112.018330 91 1142ft 119kts
15-Apr-18 09:10 33.429397 -112.004899 55 1141ft 7kts
15-Apr-18 09:11 33.429496 -112.004741 51 1141ft 0kts
15-Apr-18 09:12 33.429947 -112.002670 88 1141ft 14kts
15-Apr-18 09:13 33.430392 -111.999584 10 1141ft 8kts
15-Apr-18 09:14 33.432171 -111.998369 60 1141ft 11kts
15-Apr-18 09:15 33.433025 -111.996921 9 1141ft 6kts
15-Apr-18 09:16 33.433472 -111.996902 0 1141ft 0kts
15-Apr-18 09:17 33.433472 -111.996902 0 1141ft 0kts
15-Apr-18 09:18 33.433472 -111.996902 0 1141ft 0kts
15-Apr-18 09:19 33.433472 -111.996902 0 1141ft 0kts
15-Apr-18 09:20 33.433472 -111.996902 0 1141ft 0kts
15-Apr-18 09:21 33.433472 -111.996902 0 1141ft 0kts
15-Apr-18 09:22 33.433472 -111.996902 0 1141ft 0kts
15-Apr-18 09:23 33.433472 -111.996902 0 1141ft 0kts

Navigation Log

Ident Type
Flight plan parsing failed, navigation log unavailable